createdAt,value
2018-12-16T00:00:07.016Z,63.70
2018-12-16T00:01:07.032Z,60.60
2018-12-16T00:02:07.043Z,64.00
2018-12-16T00:03:07.046Z,69.40
2018-12-16T00:04:07.059Z,66.70
2018-12-16T00:05:07.071Z,67.70
2018-12-16T00:06:07.087Z,71.60
2018-12-16T00:07:07.090Z,66.70
2018-12-16T00:08:07.100Z,65.60
2018-12-16T00:09:07.122Z,63.50
2018-12-16T00:10:07.127Z,69.50
2018-12-16T00:11:07.128Z,62.50
2018-12-16T00:12:07.145Z,61.50
2018-12-16T00:13:07.157Z,59.20
2018-12-16T00:14:07.170Z,59.30
2018-12-16T00:15:07.182Z,66.80
2018-12-16T00:16:07.183Z,63.00
2018-12-16T00:17:07.197Z,61.90
2018-12-16T00:18:07.210Z,70.90
2018-12-16T00:19:07.211Z,63.60
2018-12-16T00:20:07.226Z,59.40
2018-12-16T00:21:07.238Z,65.90
2018-12-16T00:22:07.253Z,64.00
2018-12-16T00:23:07.254Z,65.80
2018-12-16T00:24:07.266Z,64.20
2018-12-16T00:25:07.281Z,60.90
2018-12-16T00:26:07.293Z,65.80
2018-12-16T00:27:07.295Z,70.60
2018-12-16T00:28:07.308Z,62.20
2018-12-16T00:29:07.322Z,61.50
2018-12-16T00:30:07.335Z,64.30
2018-12-16T00:31:07.349Z,61.60
2018-12-16T00:32:07.350Z,62.10
2018-12-16T00:33:07.364Z,64.40
2018-12-16T00:34:07.376Z,59.50
2018-12-16T00:35:07.395Z,63.10
2018-12-16T00:36:07.394Z,61.50
2018-12-16T00:37:07.405Z,59.00
2018-12-16T00:38:07.419Z,59.60
2018-12-16T00:39:07.431Z,61.80
2018-12-16T00:40:07.433Z,59.00
2018-12-16T00:41:07.447Z,63.60
2018-12-16T00:42:07.473Z,62.10
2018-12-16T00:43:07.474Z,59.60
2018-12-16T00:44:07.475Z,60.00
2018-12-16T00:45:07.487Z,62.90
2018-12-16T00:46:07.501Z,58.70
2018-12-16T00:47:07.517Z,62.30
2018-12-16T00:48:07.516Z,60.60
2018-12-16T00:49:07.531Z,64.30
2018-12-16T00:50:07.557Z,62.00
2018-12-16T00:51:07.558Z,60.90
2018-12-16T00:52:07.558Z,58.60
2018-12-16T00:53:07.572Z,69.10
2018-12-16T00:54:07.586Z,69.90
2018-12-16T00:55:07.600Z,60.70
2018-12-16T00:56:07.599Z,62.00
2018-12-16T00:57:07.614Z,64.90
2018-12-16T00:58:07.639Z,62.00
2018-12-16T00:59:07.641Z,60.50
2018-12-16T01:00:07.642Z,64.10
2018-12-16T01:01:07.656Z,61.20
2018-12-16T01:02:07.668Z,70.20
2018-12-16T01:03:07.681Z,65.40
2018-12-16T01:04:07.684Z,63.90
2018-12-16T01:05:07.697Z,61.20
2018-12-16T01:06:07.709Z,63.20
2018-12-16T01:07:07.726Z,58.70
2018-12-16T01:08:07.725Z,63.60
2018-12-16T01:09:07.740Z,59.80
2018-12-16T01:10:07.751Z,61.00
2018-12-16T01:11:07.777Z,64.50
2018-12-16T01:12:07.767Z,60.00
2018-12-16T01:13:07.780Z,60.30
2018-12-16T01:14:07.793Z,62.60
2018-12-16T01:15:07.807Z,65.50
2018-12-16T01:16:07.808Z,59.50
2018-12-16T01:17:07.821Z,67.40
2018-12-16T01:18:07.836Z,61.70
2018-12-16T01:19:07.848Z,67.20
2018-12-16T01:20:07.849Z,56.40
2018-12-16T01:21:07.864Z,61.80
2018-12-16T01:22:07.876Z,59.50
2018-12-16T01:23:07.890Z,60.30
2018-12-16T01:24:07.891Z,60.20
2018-12-16T01:25:07.904Z,58.10
2018-12-16T01:26:07.918Z,57.30
2018-12-16T01:27:07.931Z,63.10
2018-12-16T01:28:07.933Z,60.80
2018-12-16T01:29:07.946Z,61.40
2018-12-16T01:30:07.959Z,61.20
2018-12-16T01:31:07.973Z,60.10
2018-12-16T01:32:07.974Z,61.40
2018-12-16T01:33:07.987Z,55.80
2018-12-16T01:34:08.002Z,57.10
2018-12-16T01:35:08.014Z,60.30
2018-12-16T01:36:08.015Z,55.70
2018-12-16T01:37:08.028Z,53.20
2018-12-16T01:38:08.055Z,61.10
2018-12-16T01:39:08.056Z,62.40
2018-12-16T01:40:08.058Z,61.00
2018-12-16T01:41:08.070Z,57.60
2018-12-16T01:42:08.084Z,55.80
2018-12-16T01:43:08.097Z,55.30
2018-12-16T01:44:08.099Z,57.00
2018-12-16T01:45:08.113Z,57.40
2018-12-16T01:46:08.125Z,55.00
2018-12-16T01:47:08.139Z,57.50
2018-12-16T01:48:08.140Z,57.40
2018-12-16T01:49:08.154Z,55.70
2018-12-16T01:50:08.168Z,52.70
2018-12-16T01:51:08.181Z,56.50
2018-12-16T01:52:08.181Z,54.40
2018-12-16T01:53:08.197Z,58.10
2018-12-16T01:54:08.210Z,55.00
2018-12-16T01:55:08.223Z,55.40
2018-12-16T01:56:08.224Z,56.30
2018-12-16T01:57:08.237Z,57.50
2018-12-16T01:58:08.251Z,55.70
2018-12-16T01:59:08.264Z,54.80
2018-12-16T02:00:08.264Z,51.20
2018-12-16T02:01:08.280Z,55.40
2018-12-16T02:02:08.291Z,55.90
2018-12-16T02:03:08.306Z,56.90
2018-12-16T02:04:08.308Z,54.80
2018-12-16T02:05:08.319Z,52.60
2018-12-16T02:06:08.334Z,51.80
2018-12-16T02:07:08.347Z,51.70
2018-12-16T02:08:08.348Z,61.90
2018-12-16T02:09:08.363Z,47.90
2018-12-16T02:10:08.376Z,56.20
2018-12-16T02:11:08.392Z,49.60
2018-12-16T02:12:08.391Z,52.10
2018-12-16T02:13:08.403Z,52.40
2018-12-16T02:14:08.420Z,53.90
2018-12-16T02:15:08.429Z,50.10
2018-12-16T02:16:08.438Z,53.10
2018-12-16T02:17:08.446Z,52.60
2018-12-16T02:18:08.460Z,51.40
2018-12-16T02:19:08.460Z,48.40
2018-12-16T02:20:08.474Z,48.00
2018-12-16T02:21:08.489Z,51.90
2018-12-16T02:22:08.501Z,47.90
2018-12-16T02:23:08.502Z,49.20
2018-12-16T02:24:08.514Z,50.10
2018-12-16T02:25:08.529Z,47.40
2018-12-16T02:26:08.541Z,47.50
2018-12-16T02:27:08.545Z,51.40
2018-12-16T02:28:08.557Z,49.50
2018-12-16T02:29:08.570Z,45.50
2018-12-16T02:30:08.585Z,47.80
2018-12-16T02:31:08.590Z,49.40
2018-12-16T02:32:08.597Z,52.80
2018-12-16T02:33:08.614Z,48.40
2018-12-16T02:34:08.630Z,51.50
2018-12-16T02:35:08.626Z,49.40
2018-12-16T02:36:08.644Z,48.30
2018-12-16T02:37:08.658Z,47.20
2018-12-16T02:38:08.668Z,51.60
2018-12-16T02:39:08.669Z,47.30
2018-12-16T02:40:08.683Z,46.10
2018-12-16T02:41:08.700Z,43.70
2018-12-16T02:42:08.723Z,44.80
2018-12-16T02:43:08.709Z,46.50
2018-12-16T02:44:08.723Z,43.30
2018-12-16T02:45:08.737Z,44.20
2018-12-16T02:46:08.751Z,47.60
2018-12-16T02:47:08.753Z,46.20
2018-12-16T02:48:08.764Z,45.10
2018-12-16T02:49:08.778Z,47.20
2018-12-16T02:50:08.794Z,44.60
2018-12-16T02:51:08.792Z,48.80
2018-12-16T02:52:08.806Z,41.80
2018-12-16T02:53:08.821Z,43.20
2018-12-16T02:54:08.834Z,47.30
2018-12-16T02:55:08.836Z,41.40
2018-12-16T02:56:08.849Z,45.30
2018-12-16T02:57:08.863Z,44.60
2018-12-16T02:58:08.875Z,43.10
2018-12-16T02:59:08.877Z,42.40
2018-12-16T03:00:08.892Z,42.60
2018-12-16T03:01:08.910Z,38.90
2018-12-16T03:02:08.905Z,38.70
2018-12-16T03:03:08.919Z,36.30
2018-12-16T03:04:08.933Z,38.80
2018-12-16T03:05:08.945Z,40.50
2018-12-16T03:06:08.946Z,38.60
2018-12-16T03:07:08.960Z,38.10
2018-12-16T03:08:08.973Z,38.00
2018-12-16T03:09:08.987Z,37.60
2018-12-16T03:10:08.987Z,37.30
2018-12-16T03:11:09.001Z,38.10
2018-12-16T03:12:09.014Z,32.50
2018-12-16T03:13:09.028Z,35.20
2018-12-16T03:14:09.031Z,37.90
2018-12-16T03:15:09.043Z,34.90
2018-12-16T03:16:09.056Z,33.00
2018-12-16T03:17:09.083Z,32.50
2018-12-16T03:18:09.073Z,32.40
2018-12-16T03:19:09.086Z,33.70
2018-12-16T03:20:09.098Z,33.90
2018-12-16T03:21:09.112Z,33.00
2018-12-16T03:22:09.119Z,29.90
2018-12-16T03:23:12.185Z,28.60
2018-12-16T03:24:09.139Z,29.50
2018-12-16T03:25:09.153Z,32.70
2018-12-16T03:26:09.156Z,33.80
2018-12-16T03:27:09.167Z,31.40
2018-12-16T03:28:09.181Z,32.10
2018-12-16T03:29:09.195Z,33.10
2018-12-16T03:30:09.201Z,32.50
2018-12-16T03:31:09.209Z,30.30
2018-12-16T03:32:09.314Z,29.30
2018-12-16T03:33:09.236Z,30.50
2018-12-16T03:34:09.238Z,28.70
2018-12-16T03:35:09.251Z,28.70
2018-12-16T03:36:09.263Z,27.20
2018-12-16T03:37:09.278Z,27.30
2018-12-16T03:38:09.579Z,25.70
2018-12-16T03:39:09.293Z,30.20
2018-12-16T03:40:09.309Z,25.60
2018-12-16T03:41:09.319Z,25.20
2018-12-16T03:42:09.322Z,27.70
2018-12-16T03:43:09.335Z,25.70
2018-12-16T03:44:09.360Z,25.10
2018-12-16T03:45:09.363Z,27.80
2018-12-16T03:46:09.364Z,25.00
2018-12-16T03:47:09.381Z,26.20
2018-12-16T03:48:09.389Z,24.70
2018-12-16T03:49:09.401Z,24.10
2018-12-16T03:50:09.418Z,25.90
2018-12-16T03:51:09.417Z,25.40
2018-12-16T03:52:09.429Z,26.80
2018-12-16T03:53:09.435Z,26.70
2018-12-16T03:54:09.445Z,25.90
2018-12-16T03:55:09.458Z,21.70
2018-12-16T03:56:09.474Z,26.40
2018-12-16T03:57:09.486Z,26.20
2018-12-16T03:58:09.488Z,24.70
2018-12-16T03:59:09.500Z,28.60
2018-12-16T04:00:09.515Z,25.30
2018-12-16T04:01:09.517Z,24.20
2018-12-16T04:02:09.528Z,25.00
2018-12-16T04:03:09.541Z,24.90
2018-12-16T04:04:09.556Z,26.80
2018-12-16T04:05:09.568Z,24.70
2018-12-16T04:06:09.569Z,26.00
2018-12-16T04:07:09.583Z,24.10
2018-12-16T04:08:09.597Z,22.90
2018-12-16T04:09:09.599Z,23.40
2018-12-16T04:10:09.611Z,21.10
2018-12-16T04:11:09.637Z,23.70
2018-12-16T04:12:09.640Z,23.20
2018-12-16T04:13:09.639Z,22.80
2018-12-16T04:14:09.653Z,22.80
2018-12-16T04:15:09.669Z,24.20
2018-12-16T04:16:09.680Z,20.70
2018-12-16T04:17:09.696Z,24.30
2018-12-16T04:18:09.695Z,21.90
2018-12-16T04:19:09.707Z,22.20
2018-12-16T04:20:09.725Z,25.50
2018-12-16T04:21:09.724Z,20.30
2018-12-16T04:22:09.737Z,23.50
2018-12-16T04:23:09.753Z,20.50
2018-12-16T04:24:09.764Z,21.40
2018-12-16T04:25:09.764Z,21.70
2018-12-16T04:26:09.778Z,23.90
2018-12-16T04:27:09.791Z,23.60
2018-12-16T04:28:09.809Z,23.20
2018-12-16T04:29:09.810Z,24.90
2018-12-16T04:30:09.820Z,25.80
2018-12-16T04:31:09.833Z,25.10
2018-12-16T04:32:09.846Z,23.90
2018-12-16T04:33:09.852Z,29.30
2018-12-16T04:34:09.863Z,27.80
2018-12-16T04:35:09.874Z,26.50
2018-12-16T04:36:09.894Z,26.40
2018-12-16T04:37:09.889Z,29.40
2018-12-16T04:38:09.904Z,26.30
2018-12-16T04:39:09.917Z,24.70
2018-12-16T04:40:09.919Z,29.40
2018-12-16T04:41:09.931Z,26.50
2018-12-16T04:42:09.946Z,28.10
2018-12-16T04:43:09.958Z,30.70
2018-12-16T04:44:09.959Z,31.80
2018-12-16T04:45:09.972Z,32.10
2018-12-16T04:46:09.985Z,29.00
2018-12-16T04:47:10.000Z,29.50
2018-12-16T04:48:10.000Z,29.00
2018-12-16T04:49:10.014Z,31.00
2018-12-16T04:50:10.027Z,30.80
2018-12-16T04:51:10.042Z,28.80
2018-12-16T04:52:10.055Z,33.40
2018-12-16T04:53:10.059Z,30.50
2018-12-16T04:54:10.069Z,31.60
2018-12-16T04:55:10.072Z,31.60
2018-12-16T04:56:10.085Z,36.20
2018-12-16T04:57:10.098Z,32.40
2018-12-16T04:58:10.111Z,35.10
2018-12-16T04:59:10.112Z,28.80
2018-12-16T05:00:10.128Z,34.10
2018-12-16T05:01:10.139Z,32.60
2018-12-16T05:02:10.154Z,38.00
2018-12-16T05:03:10.155Z,30.80
2018-12-16T05:04:10.169Z,33.90
2018-12-16T05:05:10.181Z,29.80
2018-12-16T05:06:10.194Z,31.40
2018-12-16T05:07:10.195Z,31.90
2018-12-16T05:08:10.207Z,31.30
2018-12-16T05:09:10.223Z,32.10
2018-12-16T05:10:10.223Z,35.40
2018-12-16T05:11:10.236Z,31.50
2018-12-16T05:12:10.254Z,33.00
2018-12-16T05:13:10.263Z,36.90
2018-12-16T05:14:10.264Z,36.50
2018-12-16T05:15:10.280Z,36.20
2018-12-16T05:16:10.292Z,35.40
2018-12-16T05:17:10.306Z,34.70
2018-12-16T05:18:10.310Z,41.70
2018-12-16T05:19:10.321Z,35.90
2018-12-16T05:20:10.334Z,33.40
2018-12-16T05:21:10.346Z,34.70
2018-12-16T05:22:10.347Z,37.30
2018-12-16T05:23:10.361Z,35.40
2018-12-16T05:24:10.377Z,35.60
2018-12-16T05:25:10.392Z,34.10
2018-12-16T05:26:10.389Z,34.00
2018-12-16T05:27:10.403Z,38.20
2018-12-16T05:28:10.418Z,35.20
2018-12-16T05:29:10.418Z,36.30
2018-12-16T05:30:10.431Z,38.70
2018-12-16T05:31:10.445Z,34.90
2018-12-16T05:32:10.460Z,35.90
2018-12-16T05:33:10.472Z,35.80
2018-12-16T05:34:10.474Z,35.20
2018-12-16T05:35:10.486Z,37.90
2018-12-16T05:36:10.501Z,40.60
2018-12-16T05:37:10.501Z,37.70
2018-12-16T05:38:10.513Z,36.50
2018-12-16T05:39:10.529Z,38.10
2018-12-16T05:40:10.540Z,36.40
2018-12-16T05:41:10.541Z,36.00
2018-12-16T05:42:10.556Z,33.90
2018-12-16T05:43:10.569Z,37.40
2018-12-16T05:44:10.583Z,36.80
2018-12-16T05:45:10.583Z,35.70
2018-12-16T05:46:10.596Z,36.60
2018-12-16T05:47:10.611Z,36.60
2018-12-16T05:48:10.624Z,34.60
2018-12-16T05:49:10.626Z,37.10
2018-12-16T05:50:10.639Z,37.60
2018-12-16T05:51:10.653Z,38.90
2018-12-16T05:52:10.653Z,38.40
2018-12-16T05:53:10.666Z,36.90
2018-12-16T05:54:10.685Z,36.40
2018-12-16T05:55:10.694Z,36.00
2018-12-16T05:56:10.695Z,38.60
2018-12-16T05:57:10.711Z,41.40
2018-12-16T05:58:10.722Z,40.20
2018-12-16T05:59:10.735Z,37.50
2018-12-16T06:00:10.738Z,39.60
2018-12-16T06:01:10.750Z,39.10
2018-12-16T06:02:10.763Z,42.40
2018-12-16T06:03:10.778Z,39.00
2018-12-16T06:04:10.778Z,39.80
2018-12-16T06:05:10.804Z,37.50
2018-12-16T06:06:10.807Z,38.50
2018-12-16T06:07:10.817Z,42.70
2018-12-16T06:08:10.820Z,41.80
2018-12-16T06:09:10.836Z,41.70
2018-12-16T06:10:10.848Z,42.70
2018-12-16T06:11:10.848Z,40.80
2018-12-16T06:12:10.862Z,42.80
2018-12-16T06:13:10.878Z,41.50
2018-12-16T06:14:10.889Z,41.60
2018-12-16T06:15:10.902Z,44.20
2018-12-16T06:16:10.902Z,41.50
2018-12-16T06:17:10.917Z,45.50
2018-12-16T06:18:10.929Z,47.30
2018-12-16T06:19:10.931Z,43.40
2018-12-16T06:20:10.945Z,45.70
2018-12-16T06:21:10.958Z,38.50
2018-12-16T06:22:10.959Z,44.10
2018-12-16T06:23:10.973Z,42.00
2018-12-16T06:24:10.986Z,43.00
2018-12-16T06:25:11.005Z,41.80
2018-12-16T06:26:11.001Z,38.70
2018-12-16T06:27:11.014Z,40.50
2018-12-16T06:28:11.028Z,41.00
2018-12-16T06:29:11.040Z,40.50
2018-12-16T06:30:11.042Z,44.80
2018-12-16T06:31:11.058Z,40.90
2018-12-16T06:32:11.069Z,42.00
2018-12-16T06:33:11.071Z,43.20
2018-12-16T06:34:11.084Z,44.20
2018-12-16T06:35:11.097Z,41.40
2018-12-16T06:36:11.114Z,42.30
2018-12-16T06:37:11.113Z,47.10
2018-12-16T06:38:11.126Z,41.80
2018-12-16T06:39:11.139Z,42.10
2018-12-16T06:40:11.152Z,46.70
2018-12-16T06:41:11.153Z,44.70
2018-12-16T06:42:11.167Z,39.50
2018-12-16T06:43:11.182Z,40.90
2018-12-16T06:44:11.197Z,46.50
2018-12-16T06:45:11.197Z,40.40
2018-12-16T06:46:11.210Z,42.10
2018-12-16T06:47:11.222Z,42.70
2018-12-16T06:48:11.224Z,40.10
2018-12-16T06:49:11.236Z,38.80
2018-12-16T06:50:11.251Z,36.20
2018-12-16T06:51:11.264Z,38.90
2018-12-16T06:52:11.264Z,38.50
2018-12-16T06:53:11.279Z,37.00
2018-12-16T06:54:11.292Z,38.30
2018-12-16T06:55:11.306Z,37.80
2018-12-16T06:56:11.307Z,38.30
2018-12-16T06:57:11.319Z,37.70
2018-12-16T06:58:11.334Z,43.40
2018-12-16T06:59:11.335Z,39.60
2018-12-16T07:00:11.348Z,39.30
2018-12-16T07:01:11.362Z,43.50
2018-12-16T07:02:11.374Z,42.00
2018-12-16T07:03:11.375Z,40.70
2018-12-16T07:04:11.390Z,37.50
2018-12-16T07:05:11.403Z,36.20
2018-12-16T07:06:11.403Z,38.60
2018-12-16T07:07:11.418Z,40.20
2018-12-16T07:08:11.430Z,40.90
2018-12-16T07:09:11.445Z,37.80
2018-12-16T07:10:11.457Z,40.00
2018-12-16T07:11:11.459Z,36.60
2018-12-16T07:12:11.473Z,38.60
2018-12-16T07:13:11.491Z,37.70
2018-12-16T07:14:11.486Z,41.80
2018-12-16T07:15:11.500Z,35.00
2018-12-16T07:16:11.514Z,41.30
2018-12-16T07:17:11.515Z,37.50
2018-12-16T07:18:11.559Z,40.00
2018-12-16T07:19:11.541Z,37.70
2018-12-16T07:20:11.556Z,40.00
2018-12-16T07:21:11.579Z,37.20
2018-12-16T07:22:11.573Z,37.30
2018-12-16T07:23:11.597Z,34.40
2018-12-16T07:24:11.585Z,37.20
2018-12-16T07:25:11.598Z,36.30
2018-12-16T07:26:11.612Z,31.80
2018-12-16T07:27:11.625Z,37.40
2018-12-16T07:28:11.628Z,33.60
2018-12-16T07:29:11.646Z,34.50
2018-12-16T07:30:11.652Z,36.00
2018-12-16T07:31:11.668Z,31.90
2018-12-16T07:32:11.696Z,34.60
2018-12-16T07:33:11.681Z,33.10
2018-12-16T07:34:11.695Z,32.50
2018-12-16T07:35:11.702Z,32.20
2018-12-16T07:36:11.709Z,31.70
2018-12-16T07:37:11.724Z,34.50
2018-12-16T07:38:11.736Z,30.20
2018-12-16T07:39:11.754Z,27.90
2018-12-16T07:40:11.751Z,30.80
2018-12-16T07:41:11.764Z,30.10
2018-12-16T07:42:11.798Z,31.20
2018-12-16T07:43:11.782Z,29.00
2018-12-16T07:44:11.817Z,31.90
2018-12-16T07:45:11.807Z,28.40
2018-12-16T07:46:11.817Z,29.40
2018-12-16T07:47:11.835Z,28.70
2018-12-16T07:48:11.835Z,31.40
2018-12-16T07:49:11.862Z,29.80
2018-12-16T07:50:11.876Z,32.90
2018-12-16T07:51:11.865Z,31.90
2018-12-16T07:52:11.876Z,29.20
2018-12-16T07:53:11.879Z,29.60
2018-12-16T07:54:16.111Z,31.10
2018-12-16T07:55:11.909Z,28.60
2018-12-16T07:56:11.956Z,32.10
2018-12-16T07:57:11.925Z,31.40
2018-12-16T07:58:11.936Z,28.50
2018-12-16T07:59:11.946Z,33.70
2018-12-16T08:00:11.947Z,26.90
2018-12-16T08:01:11.960Z,29.50
2018-12-16T08:02:11.974Z,27.60
2018-12-16T08:03:11.986Z,28.10
2018-12-16T08:04:11.988Z,25.20
2018-12-16T08:05:12.002Z,29.40
2018-12-16T08:06:12.015Z,26.10
2018-12-16T08:07:12.029Z,23.00
2018-12-16T08:08:12.031Z,23.50
2018-12-16T08:09:12.042Z,25.50
2018-12-16T08:10:12.060Z,25.10
2018-12-16T08:11:12.070Z,24.30
2018-12-16T08:12:12.073Z,23.30
2018-12-16T08:13:12.086Z,22.90
2018-12-16T08:14:12.098Z,24.20
2018-12-16T08:15:12.099Z,23.10
2018-12-16T08:16:12.113Z,23.80
2018-12-16T08:17:12.129Z,25.10
2018-12-16T08:18:12.140Z,26.10
2018-12-16T08:19:12.141Z,26.30
2018-12-16T08:20:12.154Z,21.50
2018-12-16T08:21:12.168Z,23.80
2018-12-16T08:22:12.182Z,25.40
2018-12-16T08:23:12.182Z,30.10
2018-12-16T08:24:12.197Z,25.40
2018-12-16T08:25:12.212Z,26.80
2018-12-16T08:26:12.211Z,27.40
2018-12-16T08:27:12.225Z,28.30
2018-12-16T08:28:12.238Z,26.20
2018-12-16T08:29:12.253Z,28.30
2018-12-16T08:30:12.253Z,24.60
2018-12-16T08:31:12.267Z,26.10
2018-12-16T08:32:12.280Z,22.70
2018-12-16T08:33:12.293Z,24.60
2018-12-16T08:34:12.294Z,24.00
2018-12-16T08:35:12.308Z,26.00
2018-12-16T08:36:12.321Z,28.70
2018-12-16T08:37:12.335Z,26.20
2018-12-16T08:38:12.339Z,26.80
2018-12-16T08:39:12.351Z,25.70
2018-12-16T08:40:12.363Z,26.50
2018-12-16T08:41:12.376Z,28.90
2018-12-16T08:42:12.378Z,23.80
2018-12-16T08:43:12.392Z,23.80
2018-12-16T08:44:12.404Z,23.00
2018-12-16T08:45:12.419Z,26.10
2018-12-16T08:46:12.421Z,26.30
2018-12-16T08:47:12.432Z,26.40
2018-12-16T08:48:12.445Z,23.30
2018-12-16T08:49:12.459Z,24.30
2018-12-16T08:50:12.460Z,24.20
2018-12-16T08:51:12.475Z,25.60
2018-12-16T08:52:12.489Z,20.70
2018-12-16T08:53:12.489Z,23.70
2018-12-16T08:54:12.503Z,22.00
2018-12-16T08:55:12.516Z,25.50
2018-12-16T08:56:12.529Z,25.00
2018-12-16T08:57:12.542Z,27.50
2018-12-16T08:58:12.545Z,22.40
2018-12-16T08:59:12.561Z,26.40
2018-12-16T09:00:12.571Z,23.30
2018-12-16T09:01:12.586Z,23.80
2018-12-16T09:02:12.586Z,23.50
2018-12-16T09:03:12.599Z,24.20
2018-12-16T09:04:12.616Z,22.70
2018-12-16T09:05:12.626Z,23.90
2018-12-16T09:06:12.627Z,22.80
2018-12-16T09:07:12.641Z,24.10
2018-12-16T09:08:12.654Z,21.90
2018-12-16T09:09:12.668Z,21.30
2018-12-16T09:10:12.669Z,21.60
2018-12-16T09:11:12.682Z,22.80
2018-12-16T09:12:12.696Z,20.20
2018-12-16T09:13:12.711Z,21.80
2018-12-16T09:14:12.710Z,21.60
2018-12-16T09:15:12.725Z,23.70
2018-12-16T09:16:12.738Z,22.70
2018-12-16T09:17:12.752Z,21.70
2018-12-16T09:18:12.752Z,23.80
2018-12-16T09:19:12.767Z,22.40
2018-12-16T09:20:12.783Z,20.10
2018-12-16T09:21:12.794Z,21.10
2018-12-16T09:22:12.795Z,19.70
2018-12-16T09:23:12.809Z,25.70
2018-12-16T09:24:12.823Z,23.30
2018-12-16T09:25:12.835Z,22.90
2018-12-16T09:26:12.849Z,22.90
2018-12-16T09:27:12.849Z,21.50
2018-12-16T09:28:12.862Z,20.10
2018-12-16T09:29:12.875Z,25.90
2018-12-16T09:30:12.893Z,19.60
2018-12-16T09:31:12.893Z,18.00
2018-12-16T09:32:12.904Z,21.60
2018-12-16T09:33:12.919Z,19.30
2018-12-16T09:34:12.943Z,19.40
2018-12-16T09:35:12.945Z,19.20
2018-12-16T09:36:12.946Z,19.70
2018-12-16T09:37:12.959Z,20.80
2018-12-16T09:38:12.974Z,19.80
2018-12-16T09:39:12.986Z,22.50
2018-12-16T09:40:12.989Z,20.30
2018-12-16T09:41:13.026Z,21.50
2018-12-16T09:42:13.014Z,22.10
2018-12-16T09:43:13.028Z,24.50
2018-12-16T09:44:13.029Z,20.00
2018-12-16T09:45:13.045Z,20.50
2018-12-16T09:46:13.057Z,22.20
2018-12-16T09:47:13.073Z,21.90
2018-12-16T09:48:13.083Z,22.60
2018-12-16T09:49:13.084Z,18.60
2018-12-16T09:50:13.099Z,23.40
2018-12-16T09:51:13.112Z,20.80
2018-12-16T09:52:13.124Z,20.60
2018-12-16T09:53:13.126Z,22.50
2018-12-16T09:54:13.140Z,20.30
2018-12-16T09:55:13.154Z,19.30
2018-12-16T09:56:13.167Z,19.40
2018-12-16T09:57:13.181Z,18.70
2018-12-16T09:58:13.182Z,20.40
2018-12-16T09:59:13.195Z,17.70
2018-12-16T10:00:13.207Z,21.80
2018-12-16T10:01:13.221Z,19.90
2018-12-16T10:02:13.224Z,20.80
2018-12-16T10:03:13.235Z,19.20
2018-12-16T10:04:13.250Z,19.20
2018-12-16T10:05:13.263Z,21.70
2018-12-16T10:06:13.276Z,21.20
2018-12-16T10:07:13.278Z,22.80
2018-12-16T10:08:13.292Z,22.50
2018-12-16T10:09:13.305Z,20.60
2018-12-16T10:10:13.317Z,22.40
2018-12-16T10:11:13.320Z,19.30
2018-12-16T10:12:13.333Z,20.80
2018-12-16T10:13:13.348Z,20.60
2018-12-16T10:14:13.361Z,21.40
2018-12-16T10:15:13.374Z,22.70
2018-12-16T10:16:13.374Z,25.40
2018-12-16T10:17:13.388Z,23.40
2018-12-16T10:18:13.401Z,23.20
2018-12-16T10:19:13.415Z,21.50
2018-12-16T10:20:13.416Z,23.20
2018-12-16T10:21:13.444Z,23.50
2018-12-16T10:22:13.444Z,22.20
2018-12-16T10:23:13.457Z,24.30
2018-12-16T10:24:13.458Z,21.30
2018-12-16T10:25:13.472Z,18.70
2018-12-16T10:26:13.487Z,20.10
2018-12-16T10:27:13.500Z,20.00
2018-12-16T10:28:13.512Z,18.00
2018-12-16T10:29:13.512Z,21.10
2018-12-16T10:30:13.526Z,21.90
2018-12-16T10:31:13.541Z,21.20
2018-12-16T10:32:13.554Z,19.60
2018-12-16T10:33:13.566Z,18.70
2018-12-16T10:34:13.567Z,18.60
2018-12-16T10:35:13.581Z,19.80
2018-12-16T10:36:13.594Z,20.80
2018-12-16T10:37:13.608Z,18.10
2018-12-16T10:38:13.612Z,20.10
2018-12-16T10:39:13.623Z,19.20
2018-12-16T10:40:13.636Z,22.50
2018-12-16T10:41:13.652Z,20.00
2018-12-16T10:42:13.651Z,18.80
2018-12-16T10:43:13.666Z,19.10
2018-12-16T10:44:13.677Z,17.90
2018-12-16T10:45:13.738Z,19.20
2018-12-16T10:46:13.704Z,20.30
2018-12-16T10:47:13.706Z,17.60
2018-12-16T10:48:13.720Z,21.80
2018-12-16T10:49:13.733Z,17.60
2018-12-16T10:50:13.749Z,24.20
2018-12-16T10:51:13.759Z,22.70
2018-12-16T10:52:13.798Z,20.50
2018-12-16T10:53:13.776Z,17.70
2018-12-16T10:54:13.788Z,20.50
2018-12-16T10:55:13.806Z,22.60
2018-12-16T10:56:13.805Z,19.60
2018-12-16T10:57:13.818Z,22.30
2018-12-16T10:58:13.833Z,24.20
2018-12-16T10:59:13.844Z,19.50
2018-12-16T11:00:13.844Z,23.30
2018-12-16T11:01:13.860Z,19.60
2018-12-16T11:02:13.871Z,23.80
2018-12-16T11:03:13.887Z,22.60
2018-12-16T11:04:13.913Z,23.60
2018-12-16T11:05:13.899Z,21.30
2018-12-16T11:06:13.914Z,22.30
2018-12-16T11:07:13.926Z,23.20
2018-12-16T11:08:13.941Z,20.30
2018-12-16T11:09:13.942Z,23.30
2018-12-16T11:10:13.968Z,21.80
2018-12-16T11:11:13.969Z,20.00
2018-12-16T11:12:13.984Z,22.90
2018-12-16T11:13:13.996Z,22.90
2018-12-16T11:14:14.181Z,21.00
2018-12-16T11:15:14.010Z,23.60
2018-12-16T11:16:14.026Z,20.60
2018-12-16T11:17:14.037Z,21.20
2018-12-16T11:18:14.038Z,21.40
2018-12-16T11:19:14.053Z,20.60
2018-12-16T11:20:14.065Z,23.40
2018-12-16T11:21:14.079Z,21.40
2018-12-16T11:22:14.081Z,21.80
2018-12-16T11:23:14.095Z,18.30
2018-12-16T11:24:14.107Z,20.90
2018-12-16T11:25:14.124Z,23.90
2018-12-16T11:26:14.135Z,18.90
2018-12-16T11:27:14.137Z,21.00
2018-12-16T11:28:14.148Z,20.90
2018-12-16T11:29:14.166Z,21.00
2018-12-16T11:30:14.188Z,20.50
2018-12-16T11:31:14.190Z,20.10
2018-12-16T11:32:14.206Z,19.60
2018-12-16T11:33:14.204Z,19.50
2018-12-16T11:34:14.217Z,18.60
2018-12-16T11:35:14.234Z,20.40
2018-12-16T11:36:14.247Z,20.00
2018-12-16T11:37:14.249Z,21.50
2018-12-16T11:38:14.258Z,23.80
2018-12-16T11:39:14.274Z,22.80
2018-12-16T11:40:14.280Z,18.30
2018-12-16T11:41:14.287Z,20.80
2018-12-16T11:42:14.301Z,20.00
2018-12-16T11:43:14.316Z,20.80
2018-12-16T11:44:14.327Z,19.30
2018-12-16T11:45:14.343Z,18.40
2018-12-16T11:46:14.342Z,21.00
2018-12-16T11:47:14.356Z,20.10
2018-12-16T11:48:14.369Z,19.40
2018-12-16T11:49:14.384Z,19.00
2018-12-16T11:50:14.397Z,23.20
2018-12-16T11:51:14.397Z,19.90
2018-12-16T11:52:14.411Z,18.30
2018-12-16T11:53:14.424Z,20.40
2018-12-16T11:54:14.440Z,19.90
2018-12-16T11:55:14.443Z,19.50
2018-12-16T11:56:14.453Z,21.60
2018-12-16T11:57:14.467Z,20.30
2018-12-16T11:58:14.481Z,22.10
2018-12-16T11:59:14.494Z,22.80
2018-12-16T12:00:14.495Z,21.30
2018-12-16T12:01:14.508Z,18.90
2018-12-16T12:02:14.521Z,21.10
2018-12-16T12:03:14.535Z,17.70
2018-12-16T12:04:14.550Z,20.20
2018-12-16T12:05:14.553Z,20.30
2018-12-16T12:06:14.563Z,18.70
2018-12-16T12:07:14.577Z,21.90
2018-12-16T12:08:14.590Z,20.00
2018-12-16T12:09:14.605Z,19.80
2018-12-16T12:10:14.606Z,19.20
2018-12-16T12:11:14.618Z,18.90
2018-12-16T12:12:14.632Z,20.80
2018-12-16T12:13:14.647Z,18.30
2018-12-16T12:14:14.659Z,20.90
2018-12-16T12:15:14.686Z,18.40
2018-12-16T12:16:14.674Z,20.80
2018-12-16T12:17:14.687Z,18.00
2018-12-16T12:18:14.700Z,18.00
2018-12-16T12:19:14.715Z,17.50
2018-12-16T12:20:14.716Z,18.30
2018-12-16T12:21:14.728Z,19.80
2018-12-16T12:22:14.743Z,21.40
2018-12-16T12:23:14.756Z,20.40
2018-12-16T12:24:14.771Z,18.70
2018-12-16T12:25:19.757Z,19.80
2018-12-16T12:26:14.786Z,18.30
2018-12-16T12:27:14.809Z,20.50
2018-12-16T12:28:14.811Z,17.40
2018-12-16T12:29:14.825Z,20.10
2018-12-16T12:30:14.837Z,18.10
2018-12-16T12:31:14.852Z,19.50
2018-12-16T12:32:14.853Z,18.50
2018-12-16T12:33:14.867Z,19.50
2018-12-16T12:34:14.881Z,20.10
2018-12-16T12:35:14.894Z,19.50
2018-12-16T12:36:14.907Z,20.80
2018-12-16T12:37:14.908Z,19.60
2018-12-16T12:38:14.921Z,18.70
2018-12-16T12:39:14.934Z,19.60
2018-12-16T12:40:14.948Z,21.40
2018-12-16T12:41:14.964Z,20.20
2018-12-16T12:42:14.963Z,18.10
2018-12-16T12:43:14.977Z,19.70
2018-12-16T12:44:15.025Z,19.40
2018-12-16T12:45:15.003Z,20.20
2018-12-16T12:46:15.022Z,21.80
2018-12-16T12:47:15.030Z,19.70
2018-12-16T12:48:15.034Z,16.60
2018-12-16T12:49:15.049Z,19.70
2018-12-16T12:50:15.059Z,16.80
2018-12-16T12:51:15.073Z,17.50
2018-12-16T12:52:15.085Z,16.20